Spar Hydra — LAKL7 — position and weather

sailwx.info

Track history (hours):
 
Tides and Currents Weather Stations Pressure Air Temp Water Temp Dewpoint Dewpoint Depression Visibility Wind Speed Wind Dir Waves Ship Positions

Spar Hydra

Last reported at 2014-Oct-15 14:07 UTC. Time now 2014-Dec-22 13:32 UTC.
Position S 24°05' W 046°12'.
Warning: this ship's position is months out of date.

Length 190 m; draft 10.9 m.

Type: Ship. MMSI: 259701000.

Date/timePositionNaut miles runAvg speedWind from/ knotsBaromVisibWave heightAir tempDewpointWater temp
2014-Oct-15 14:07S 24°05' W 046°12'610.6
2014-Oct-15 13:33S 24°04' W 046°18'5 4.5
2014-Oct-15 12:33S 23°60' W 046°19'3 2.9
2014-Oct-15 11:32S 23°57' W 046°19'0 0.0
2014-Oct-15 10:29S 23°57' W 046°19'0 0.0
2014-Oct-15 09:29S 23°57' W 046°19'0 0.0
2014-Oct-15 08:32S 23°57' W 046°19'0 0.0
2014-Oct-15 07:32S 23°57' W 046°19'0 0.0
2014-Oct-15 06:32S 23°57' W 046°19'0 0.0
2014-Oct-15 05:32S 23°57' W 046°19'0 0.0
2014-Oct-15 04:32S 23°57' W 046°19'0 0.0
2014-Oct-15 03:26S 23°57' W 046°19'0 0.0
2014-Oct-15 02:32S 23°57' W 046°19'0 0.0
2014-Oct-15 01:20S 23°57' W 046°19'0 0.0
2014-Oct-15 00:32S 23°57' W 046°19'0 0.0
2014-Oct-14 23:32S 23°57' W 046°19'0 0.0
2014-Oct-14 22:32S 23°57' W 046°19'0 0.0
2014-Oct-14 21:32S 23°57' W 046°19'0 0.0
2014-Oct-14 20:32S 23°57' W 046°19'0 0.0
2014-Oct-14 19:32S 23°57' W 046°19'0 0.0
2014-Oct-14 18:23S 23°57' W 046°19'0 0.0
2014-Oct-14 17:32S 23°57' W 046°19'0 0.0
2014-Oct-14 16:32S 23°57' W 046°19'0 0.0
2014-Oct-14 15:32S 23°57' W 046°19'0 0.0
2014-Oct-14 14:32S 23°57' W 046°19'0 0.0
2014-Oct-14 13:32S 23°57' W 046°19'0 0.0
2014-Oct-14 12:32S 23°57' W 046°19'0 0.0
2014-Oct-14 11:32S 23°57' W 046°19'0 0.0
2014-Oct-14 10:32S 23°57' W 046°19'0 0.0
2014-Oct-14 09:32S 23°57' W 046°19'0 0.0
2014-Oct-14 08:32S 23°57' W 046°19'0 0.0
2014-Oct-14 07:32S 23°57' W 046°19'0 0.0
2014-Oct-14 06:32S 23°57' W 046°19'0 0.0
2014-Oct-14 05:26S 23°57' W 046°19'0 0.0
2014-Oct-14 04:32S 23°57' W 046°19'0 0.0
2014-Oct-14 03:32S 23°57' W 046°19'0 0.0
2014-Oct-14 02:29S 23°57' W 046°19'0 0.0
2014-Oct-14 01:32S 23°57' W 046°19'0 0.0
2014-Oct-14 00:32S 23°57' W 046°19'0 0.0
2014-Oct-13 23:26S 23°57' W 046°19'0 0.0
2014-Oct-13 22:32S 23°57' W 046°19'0 0.0
2014-Oct-13 21:32S 23°57' W 046°19'0 0.0
2014-Oct-13 20:32S 23°57' W 046°19'0 0.0
2014-Oct-13 19:32S 23°57' W 046°19'0 0.0
2014-Oct-13 18:32S 23°57' W 046°19'0 0.0
2014-Oct-13 17:32S 23°57' W 046°19'0 0.0
2014-Oct-13 16:29S 23°57' W 046°19'0 0.0
2014-Oct-13 15:32S 23°57' W 046°19'2 2.4
2014-Oct-13 14:33S 23°59' W 046°17'5 4.7
2014-Oct-13 13:33S 24°03' W 046°20'2 0.5
2014-Oct-13 10:22S 24°04' W 046°20'0 0.1
2014-Oct-13 09:25S 24°04' W 046°20'0 0.1
2014-Oct-13 08:22S 24°04' W 046°20'0 0.0
2014-Oct-13 05:04S 24°04' W 046°20'0 0.0
2014-Oct-13 03:28S 24°04' W 046°21'0 0.0
2014-Oct-13 02:13S 24°04' W 046°21'0 0.0
2014-Oct-13 00:19S 24°04' W 046°21'0 0.0
2014-Oct-12 23:19S 24°04' W 046°21'0 0.0
2014-Oct-12 21:22S 24°04' W 046°21'0 0.0
2014-Oct-12 19:22S 24°04' W 046°20'0 0.0
2014-Oct-12 13:16S 24°04' W 046°20'0 0.1
2014-Oct-12 12:28S 24°04' W 046°20'0 0.0
2014-Oct-12 09:31S 24°04' W 046°20'0 0.0
2014-Oct-12 07:22S 24°04' W 046°20'0 0.0
2014-Oct-12 06:31S 24°04' W 046°20'0 0.0
2014-Oct-12 05:10S 24°04' W 046°20'0 0.0
2014-Oct-12 04:31S 24°04' W 046°20'0 0.0
2014-Oct-11 18:31S 24°04' W 046°20'0 0.0
2014-Oct-11 12:25S 24°04' W 046°20'0 0.0
2014-Oct-11 10:25S 24°04' W 046°20'0 0.0
2014-Oct-11 09:22S 24°04' W 046°20'0 0.0
2014-Oct-11 08:25S 24°04' W 046°20'0 0.0
2014-Oct-11 07:31S 24°04' W 046°20'0 0.0
2014-Oct-11 06:31S 24°04' W 046°20'0 0.0
2014-Oct-11 05:28S 24°04' W 046°20'0 0.0
2014-Oct-11 04:25S 24°04' W 046°20'0 0.2
2014-Oct-11 03:25S 24°04' W 046°21'0 0.1
2014-Oct-11 02:31S 24°04' W 046°21'0 0.0
2014-Oct-11 01:25S 24°04' W 046°21'0 0.1
2014-Oct-11 00:28S 24°04' W 046°21'0 0.0
2014-Oct-10 15:10S 24°04' W 046°21'0 0.0
2014-Oct-10 13:04S 24°04' W 046°21'0 0.0
2014-Oct-10 05:16S 24°04' W 046°21'0 0.0
2014-Oct-09 20:22S 24°04' W 046°21'0 0.0
2014-Oct-09 19:10S 24°04' W 046°21'0 0.0
2014-Oct-09 16:22S 24°04' W 046°20'0 0.0
2014-Oct-09 12:22S 24°04' W 046°21'0 0.0
2014-Oct-09 05:04S 24°04' W 046°21'0 0.0
2014-Oct-09 04:28S 24°04' W 046°21'0 0.0
2014-Oct-09 03:16S 24°04' W 046°21'0 0.0
2014-Oct-09 02:04S 24°04' W 046°21'0 0.0
2014-Oct-08 22:28S 24°04' W 046°21'0 0.0
2014-Oct-08 21:22S 24°04' W 046°21'0 0.0
2014-Oct-08 17:28S 24°04' W 046°21'0 0.0
2014-Oct-08 15:16S 24°04' W 046°20'0 0.0
2014-Oct-08 12:16S 24°04' W 046°21'0 0.0
2014-Oct-08 07:28S 24°04' W 046°21'0 0.0
2014-Oct-08 06:16S 24°04' W 046°21'0 0.0
2014-Oct-08 05:22S 24°04' W 046°21'0 0.0
2014-Oct-08 04:22S 24°04' W 046°21'0 0.0
2014-Oct-08 02:28S 24°04' W 046°21'0 0.0
2014-Oct-08 01:28S 24°04' W 046°21'0 0.0
2014-Oct-08 00:34S 24°04' W 046°21'0 0.0
2014-Oct-07 21:16S 24°04' W 046°21'0 0.0
2014-Oct-07 20:10S 24°04' W 046°21'0 0.0
2014-Oct-07 18:28S 24°04' W 046°21'0 0.0
2014-Oct-07 17:16S 24°04' W 046°21'0 0.0
2014-Oct-07 16:16S 24°04' W 046°21'0 0.0
2014-Oct-07 15:22S 24°04' W 046°21'0 0.0
2014-Oct-07 14:28S 24°04' W 046°21'0 0.0
2014-Oct-07 13:28S 24°04' W 046°21'0 0.0
2014-Oct-07 12:22S 24°04' W 046°21'0 0.0
2014-Oct-07 11:22S 24°04' W 046°21'0 0.0
2014-Oct-07 10:28S 24°04' W 046°21'0 0.0
2014-Oct-07 09:28S 24°04' W 046°21'0 0.0
2014-Oct-07 08:04S 24°04' W 046°21'0 0.0
2014-Oct-07 07:22S 24°04' W 046°21'0 0.0
2014-Oct-07 06:22S 24°04' W 046°21'0 0.0
2014-Oct-07 05:28S 24°04' W 046°21'0 0.0
2014-Oct-07 04:22S 24°04' W 046°21'0 0.0
2014-Oct-07 03:28S 24°04' W 046°21'0 0.0
2014-Oct-07 02:16S 24°04' W 046°21'0 0.0
2014-Oct-07 00:28S 24°04' W 046°21'0 0.0
2014-Oct-06 23:22S 24°04' W 046°21'0 0.0
2014-Oct-06 20:28S 24°04' W 046°21'0 0.0
2014-Oct-06 19:28S 24°04' W 046°21'0 0.0
2014-Oct-06 18:22S 24°04' W 046°21'0 0.0
2014-Oct-06 17:22S 24°04' W 046°21'0 0.0
2014-Oct-06 14:22S 24°04' W 046°21'0 0.0
2014-Oct-06 13:10S 24°04' W 046°21'0 0.0
2014-Oct-06 12:10S 24°04' W 046°21'0 0.1
2014-Oct-06 11:22S 24°04' W 046°21'0 0.0
2014-Oct-06 09:04S 24°04' W 046°21'0 0.0
2014-Oct-06 04:22S 24°04' W 046°21'0 0.0
2014-Oct-06 03:22S 24°04' W 046°21'0 0.0
2014-Oct-05 15:33S 24°04' W 046°21'4 3.4
2014-Oct-05 14:31S 24°01' W 046°20'  
Track history (hours):
 
Tides and Currents Weather Stations Pressure Air Temp Water Temp Dewpoint Dewpoint Depression Visibility Wind Speed Wind Dir Waves Ship Positions

Spar Hydra

Last reported at 2014-Oct-15 14:07 UTC. Time now 2014-Dec-22 13:32 UTC.
Position S 24°05' W 046°12'.
Warning: this ship's position is months out of date.

Length 190 m; draft 10.9 m.

Type: Ship. MMSI: 259701000.

Date/timePositionNaut miles runAvg speedWind from/ knotsBaromVisibWave heightAir tempDewpointWater temp
2014-Oct-15 14:07S 24°05' W 046°12'610.6
2014-Oct-15 13:33S 24°04' W 046°18'5 4.5
2014-Oct-15 12:33S 23°60' W 046°19'3 2.9
2014-Oct-15 11:32S 23°57' W 046°19'0 0.0
2014-Oct-15 10:29S 23°57' W 046°19'0 0.0
2014-Oct-15 09:29S 23°57' W 046°19'0 0.0
2014-Oct-15 08:32S 23°57' W 046°19'0 0.0
2014-Oct-15 07:32S 23°57' W 046°19'0 0.0
2014-Oct-15 06:32S 23°57' W 046°19'0 0.0
2014-Oct-15 05:32S 23°57' W 046°19'0 0.0
2014-Oct-15 04:32S 23°57' W 046°19'0 0.0
2014-Oct-15 03:26S 23°57' W 046°19'0 0.0
2014-Oct-15 02:32S 23°57' W 046°19'0 0.0
2014-Oct-15 01:20S 23°57' W 046°19'0 0.0
2014-Oct-15 00:32S 23°57' W 046°19'0 0.0
2014-Oct-14 23:32S 23°57' W 046°19'0 0.0
2014-Oct-14 22:32S 23°57' W 046°19'0 0.0
2014-Oct-14 21:32S 23°57' W 046°19'0 0.0
2014-Oct-14 20:32S 23°57' W 046°19'0 0.0
2014-Oct-14 19:32S 23°57' W 046°19'0 0.0
2014-Oct-14 18:23S 23°57' W 046°19'0 0.0
2014-Oct-14 17:32S 23°57' W 046°19'0 0.0
2014-Oct-14 16:32S 23°57' W 046°19'0 0.0
2014-Oct-14 15:32S 23°57' W 046°19'0 0.0
2014-Oct-14 14:32S 23°57' W 046°19'0 0.0
2014-Oct-14 13:32S 23°57' W 046°19'0 0.0
2014-Oct-14 12:32S 23°57' W 046°19'0 0.0
2014-Oct-14 11:32S 23°57' W 046°19'0 0.0
2014-Oct-14 10:32S 23°57' W 046°19'0 0.0
2014-Oct-14 09:32S 23°57' W 046°19'0 0.0
2014-Oct-14 08:32S 23°57' W 046°19'0 0.0
2014-Oct-14 07:32S 23°57' W 046°19'0 0.0
2014-Oct-14 06:32S 23°57' W 046°19'0 0.0
2014-Oct-14 05:26S 23°57' W 046°19'0 0.0
2014-Oct-14 04:32S 23°57' W 046°19'0 0.0
2014-Oct-14 03:32S 23°57' W 046°19'0 0.0
2014-Oct-14 02:29S 23°57' W 046°19'0 0.0
2014-Oct-14 01:32S 23°57' W 046°19'0 0.0
2014-Oct-14 00:32S 23°57' W 046°19'0 0.0
2014-Oct-13 23:26S 23°57' W 046°19'0 0.0
2014-Oct-13 22:32S 23°57' W 046°19'0 0.0
2014-Oct-13 21:32S 23°57' W 046°19'0 0.0
2014-Oct-13 20:32S 23°57' W 046°19'0 0.0
2014-Oct-13 19:32S 23°57' W 046°19'0 0.0
2014-Oct-13 18:32S 23°57' W 046°19'0 0.0
2014-Oct-13 17:32S 23°57' W 046°19'0 0.0
2014-Oct-13 16:29S 23°57' W 046°19'0 0.0
2014-Oct-13 15:32S 23°57' W 046°19'2 2.4
2014-Oct-13 14:33S 23°59' W 046°17'5 4.7
2014-Oct-13 13:33S 24°03' W 046°20'2 0.5
2014-Oct-13 10:22S 24°04' W 046°20'0 0.1
2014-Oct-13 09:25S 24°04' W 046°20'0 0.1
2014-Oct-13 08:22S 24°04' W 046°20'0 0.0
2014-Oct-13 05:04S 24°04' W 046°20'0 0.0
2014-Oct-13 03:28S 24°04' W 046°21'0 0.0
2014-Oct-13 02:13S 24°04' W 046°21'0 0.0
2014-Oct-13 00:19S 24°04' W 046°21'0 0.0
2014-Oct-12 23:19S 24°04' W 046°21'0 0.0
2014-Oct-12 21:22S 24°04' W 046°21'0 0.0
2014-Oct-12 19:22S 24°04' W 046°20'0 0.0
2014-Oct-12 13:16S 24°04' W 046°20'0 0.1
2014-Oct-12 12:28S 24°04' W 046°20'0 0.0
2014-Oct-12 09:31S 24°04' W 046°20'0 0.0
2014-Oct-12 07:22S 24°04' W 046°20'0 0.0
2014-Oct-12 06:31S 24°04' W 046°20'0 0.0
2014-Oct-12 05:10S 24°04' W 046°20'0 0.0
2014-Oct-12 04:31S 24°04' W 046°20'0 0.0
2014-Oct-11 18:31S 24°04' W 046°20'0 0.0
2014-Oct-11 12:25S 24°04' W 046°20'0 0.0
2014-Oct-11 10:25S 24°04' W 046°20'0 0.0
2014-Oct-11 09:22S 24°04' W 046°20'0 0.0
2014-Oct-11 08:25S 24°04' W 046°20'0 0.0
2014-Oct-11 07:31S 24°04' W 046°20'0 0.0
2014-Oct-11 06:31S 24°04' W 046°20'0 0.0
2014-Oct-11 05:28S 24°04' W 046°20'0 0.0
2014-Oct-11 04:25S 24°04' W 046°20'0 0.2
2014-Oct-11 03:25S 24°04' W 046°21'0 0.1
2014-Oct-11 02:31S 24°04' W 046°21'0 0.0
2014-Oct-11 01:25S 24°04' W 046°21'0 0.1
2014-Oct-11 00:28S 24°04' W 046°21'0 0.0
2014-Oct-10 15:10S 24°04' W 046°21'0 0.0
2014-Oct-10 13:04S 24°04' W 046°21'0 0.0
2014-Oct-10 05:16S 24°04' W 046°21'0 0.0
2014-Oct-09 20:22S 24°04' W 046°21'0 0.0
2014-Oct-09 19:10S 24°04' W 046°21'0 0.0
2014-Oct-09 16:22S 24°04' W 046°20'0 0.0
2014-Oct-09 12:22S 24°04' W 046°21'0 0.0
2014-Oct-09 05:04S 24°04' W 046°21'0 0.0
2014-Oct-09 04:28S 24°04' W 046°21'0 0.0
2014-Oct-09 03:16S 24°04' W 046°21'0 0.0
2014-Oct-09 02:04S 24°04' W 046°21'0 0.0
2014-Oct-08 22:28S 24°04' W 046°21'0 0.0
2014-Oct-08 21:22S 24°04' W 046°21'0 0.0
2014-Oct-08 17:28S 24°04' W 046°21'0 0.0
2014-Oct-08 15:16S 24°04' W 046°20'0 0.0
2014-Oct-08 12:16S 24°04' W 046°21'0 0.0
2014-Oct-08 07:28S 24°04' W 046°21'0 0.0
2014-Oct-08 06:16S 24°04' W 046°21'0 0.0
2014-Oct-08 05:22S 24°04' W 046°21'0 0.0
2014-Oct-08 04:22S 24°04' W 046°21'0 0.0
2014-Oct-08 02:28S 24°04' W 046°21'0 0.0
2014-Oct-08 01:28S 24°04' W 046°21'0 0.0
2014-Oct-08 00:34S 24°04' W 046°21'0 0.0
2014-Oct-07 21:16S 24°04' W 046°21'0 0.0
2014-Oct-07 20:10S 24°04' W 046°21'0 0.0
2014-Oct-07 18:28S 24°04' W 046°21'0 0.0
2014-Oct-07 17:16S 24°04' W 046°21'0 0.0
2014-Oct-07 16:16S 24°04' W 046°21'0 0.0
2014-Oct-07 15:22S 24°04' W 046°21'0 0.0
2014-Oct-07 14:28S 24°04' W 046°21'0 0.0
2014-Oct-07 13:28S 24°04' W 046°21'0 0.0
2014-Oct-07 12:22S 24°04' W 046°21'0 0.0
2014-Oct-07 11:22S 24°04' W 046°21'0 0.0
2014-Oct-07 10:28S 24°04' W 046°21'0 0.0
2014-Oct-07 09:28S 24°04' W 046°21'0 0.0
2014-Oct-07 08:04S 24°04' W 046°21'0 0.0
2014-Oct-07 07:22S 24°04' W 046°21'0 0.0
2014-Oct-07 06:22S 24°04' W 046°21'0 0.0
2014-Oct-07 05:28S 24°04' W 046°21'0 0.0
2014-Oct-07 04:22S 24°04' W 046°21'0 0.0
2014-Oct-07 03:28S 24°04' W 046°21'0 0.0
2014-Oct-07 02:16S 24°04' W 046°21'0 0.0
2014-Oct-07 00:28S 24°04' W 046°21'0 0.0
2014-Oct-06 23:22S 24°04' W 046°21'0 0.0
2014-Oct-06 20:28S 24°04' W 046°21'0 0.0
2014-Oct-06 19:28S 24°04' W 046°21'0 0.0
2014-Oct-06 18:22S 24°04' W 046°21'0 0.0
2014-Oct-06 17:22S 24°04' W 046°21'0 0.0
2014-Oct-06 14:22S 24°04' W 046°21'0 0.0
2014-Oct-06 13:10S 24°04' W 046°21'0 0.0
2014-Oct-06 12:10S 24°04' W 046°21'0 0.1
2014-Oct-06 11:22S 24°04' W 046°21'0 0.0
2014-Oct-06 09:04S 24°04' W 046°21'0 0.0
2014-Oct-06 04:22S 24°04' W 046°21'0 0.0
2014-Oct-06 03:22S 24°04' W 046°21'0 0.0
2014-Oct-05 15:33S 24°04' W 046°21'4 3.4
2014-Oct-05 14:31S 24°01' W 046°20'  

Dump ship's entire track history